Time;durP1;ratioP1;P1;durP2;ratioP2;P2;SDS_P1;SDS_P2;PMS_P1;PMS_P2;Temp;Humidity;BMP_temperature;BMP_pressure;BME280_temperature;BME280_humidity;BME280_pressure;Samples;Min_cycle;Max_cycle;Signal;HPM_P1;HPM_P2
2023/12/16 00:01:13;;;;;;;3.00;2.70;;;;;;;;;;5113856;28;20534;-71
2023/12/16 00:03:39;;;;;;;3.40;3.20;;;;;;;;;;5113552;28;20897;-72
2023/12/16 00:06:05;;;;;;;2.90;2.70;;;;;;;;;;5113388;28;20804;-71
2023/12/16 00:08:31;;;;;;;3.37;3.07;;;;;;;;;;5116957;28;20412;-71
2023/12/16 00:10:57;;;;;;;2.80;2.70;;;;;;;;;;5120558;28;20809;-71
2023/12/16 00:13:23;;;;;;;2.33;2.23;;;;;;;;;;5120351;28;20424;-72
2023/12/16 00:15:49;;;;;;;2.53;2.43;;;;;;;;;;5120271;28;20423;-71
2023/12/16 00:18:15;;;;;;;2.90;2.80;;;;;;;;;;5120499;28;20945;-71
2023/12/16 00:20:41;;;;;;;3.07;2.97;;;;;;;;;;5120021;28;20419;-71
2023/12/16 00:23:07;;;;;;;3.03;2.93;;;;;;;;;;5120077;28;20415;-71
2023/12/16 00:25:33;;;;;;;3.00;2.80;;;;;;;;;;5120270;27;20496;-72
2023/12/16 00:27:59;;;;;;;3.67;3.43;;;;;;;;;;5120344;28;20479;-71
2023/12/16 00:30:26;;;;;;;3.83;2.70;;;;;;;;;;5118885;28;20757;-71
2023/12/16 00:32:51;;;;;;;3.30;2.83;;;;;;;;;;5120296;27;20567;-71
2023/12/16 00:35:17;;;;;;;2.60;2.50;;;;;;;;;;5120104;28;20460;-72
2023/12/16 00:37:43;;;;;;;2.90;2.70;;;;;;;;;;5120179;28;20412;-72
2023/12/16 00:40:10;;;;;;;2.47;2.33;;;;;;;;;;5119991;28;20451;-71
2023/12/16 00:42:36;;;;;;;4.30;2.53;;;;;;;;;;5119948;28;20418;-71
2023/12/16 00:45:02;;;;;;;2.90;2.60;;;;;;;;;;5120191;28;20419;-72
2023/12/16 00:47:28;;;;;;;3.13;2.40;;;;;;;;;;5120184;28;20915;-71
2023/12/16 00:49:54;;;;;;;2.43;2.33;;;;;;;;;;5119871;28;20444;-71
2023/12/16 00:52:20;;;;;;;2.53;2.43;;;;;;;;;;5118576;28;20419;-72
2023/12/16 00:54:47;;;;;;;2.10;2.00;;;;;;;;;;5119900;28;20447;-71
2023/12/16 00:57:13;;;;;;;2.77;2.57;;;;;;;;;;5120155;28;20412;-72
2023/12/16 00:59:39;;;;;;;2.27;2.17;;;;;;;;;;5119834;28;20418;-71
2023/12/16 01:02:05;;;;;;;3.53;2.80;;;;;;;;;;5118484;28;20424;-71
2023/12/16 01:04:31;;;;;;;2.77;2.57;;;;;;;;;;5119618;28;21086;-72
2023/12/16 01:06:57;;;;;;;2.63;2.43;;;;;;;;;;5119961;28;20475;-71
2023/12/16 01:09:24;;;;;;;2.43;2.33;;;;;;;;;;5119739;28;20407;-71
2023/12/16 01:11:50;;;;;;;7.50;2.27;;;;;;;;;;5119783;28;20990;-72
2023/12/16 01:14:16;;;;;;;4.73;1.80;;;;;;;;;;5119736;28;20539;-71
2023/12/16 01:16:42;;;;;;;3.17;1.90;;;;;;;;;;5119983;28;20485;-71
2023/12/16 01:19:08;;;;;;;2.50;2.40;;;;;;;;;;5117600;28;20422;-71
2023/12/16 01:21:43;;;;;;;13.53;2.90;;;;;;;;;;5116337;28;20408;-71
2023/12/16 01:24:09;;;;;;;2.33;2.23;;;;;;;;;;5116362;28;20423;-71
2023/12/16 01:26:36;;;;;;;2.13;2.00;;;;;;;;;;5116827;28;20471;-72
2023/12/16 01:29:02;;;;;;;2.60;2.57;;;;;;;;;;5116281;28;20814;-72
2023/12/16 01:31:28;;;;;;;2.90;2.60;;;;;;;;;;5116184;28;20934;-71
2023/12/16 01:33:54;;;;;;;4.77;2.60;;;;;;;;;;5116664;28;20400;-72
2023/12/16 01:36:20;;;;;;;2.40;2.20;;;;;;;;;;5116141;28;20899;-71
2023/12/16 01:38:46;;;;;;;2.57;2.40;;;;;;;;;;5116894;28;20892;-71
2023/12/16 01:41:12;;;;;;;2.00;1.90;;;;;;;;;;5116286;28;20415;-71
2023/12/16 01:43:38;;;;;;;2.33;2.20;;;;;;;;;;5115977;28;20399;-72
2023/12/16 01:46:04;;;;;;;2.20;2.10;;;;;;;;;;5116154;28;20454;-71
2023/12/16 01:48:34;;;;;;;2.13;2.03;;;;;;;;;;5115963;28;20515;-71
2023/12/16 01:51:01;;;;;;;5.87;1.70;;;;;;;;;;5116129;28;20408;-71
2023/12/16 01:53:27;;;;;;;10.63;2.40;;;;;;;;;;5115839;28;20415;-71
2023/12/16 01:55:54;;;;;;;2.20;2.20;;;;;;;;;;5115784;28;20400;-71
2023/12/16 01:58:20;;;;;;;3.50;1.83;;;;;;;;;;5116196;28;20773;-71
2023/12/16 02:00:48;;;;;;;4.60;1.73;;;;;;;;;;5115584;28;20843;-71
2023/12/16 02:03:15;;;;;;;2.90;2.27;;;;;;;;;;5115660;28;20516;-71
2023/12/16 02:05:41;;;;;;;3.97;2.70;;;;;;;;;;5116095;28;20480;-71
2023/12/16 02:08:08;;;;;;;2.80;2.60;;;;;;;;;;5115776;28;20427;-71
2023/12/16 02:10:34;;;;;;;2.57;2.47;;;;;;;;;;5115853;28;20443;-71
2023/12/16 02:13:03;;;;;;;2.80;2.60;;;;;;;;;;5115425;28;20548;-71
2023/12/16 02:15:29;;;;;;;3.40;3.10;;;;;;;;;;5115679;28;20412;-71
2023/12/16 02:17:55;;;;;;;2.90;2.80;;;;;;;;;;5115614;28;20432;-71
2023/12/16 02:23:25;;;;;;;2.70;2.60;;;;;;;;;;5115216;28;20426;-71
2023/12/16 02:25:51;;;;;;;2.37;2.27;;;;;;;;;;5115064;28;20499;-71
2023/12/16 02:28:17;;;;;;;2.77;2.67;;;;;;;;;;5115065;28;20431;-71
2023/12/16 02:30:43;;;;;;;4.70;2.40;;;;;;;;;;5114258;28;20420;-71
2023/12/16 02:33:09;;;;;;;2.50;2.40;;;;;;;;;;5114828;28;20495;-71
2023/12/16 02:35:35;;;;;;;2.10;2.10;;;;;;;;;;5114959;28;20414;-71
2023/12/16 02:38:01;;;;;;;4.10;2.60;;;;;;;;;;5115680;28;20555;-72
2023/12/16 02:40:27;;;;;;;2.90;2.70;;;;;;;;;;5114917;28;20535;-71
2023/12/16 02:42:53;;;;;;;2.30;2.20;;;;;;;;;;5114720;28;20423;-72
2023/12/16 02:45:19;;;;;;;2.50;2.23;;;;;;;;;;5115007;28;20458;-71
2023/12/16 02:47:45;;;;;;;2.37;2.23;;;;;;;;;;5115077;28;20427;-72
2023/12/16 02:50:11;;;;;;;2.30;2.23;;;;;;;;;;5113458;28;20415;-71
2023/12/16 02:52:37;;;;;;;2.23;2.23;;;;;;;;;;5114943;28;20430;-71
2023/12/16 02:55:03;;;;;;;3.70;3.40;;;;;;;;;;5114879;28;20928;-71
2023/12/16 02:57:29;;;;;;;2.27;2.10;;;;;;;;;;5114832;28;20420;-71
2023/12/16 02:59:55;;;;;;;2.77;2.50;;;;;;;;;;5114805;28;20418;-72
2023/12/16 03:02:21;;;;;;;2.83;2.07;;;;;;;;;;5114383;28;20458;-71
2023/12/16 03:04:47;;;;;;;2.40;2.40;;;;;;;;;;5114353;28;20478;-71
2023/12/16 03:07:13;;;;;;;2.27;2.27;;;;;;;;;;5114523;28;20482;-71
2023/12/16 03:09:40;;;;;;;2.70;2.50;;;;;;;;;;5114625;28;20455;-71
2023/12/16 03:12:06;;;;;;;4.83;2.40;;;;;;;;;;5114512;28;20418;-71
2023/12/16 03:14:34;;;;;;;2.00;2.00;;;;;;;;;;5114462;28;20548;-71
2023/12/16 03:17:00;;;;;;;2.43;2.33;;;;;;;;;;5114500;28;20560;-71
2023/12/16 03:19:27;;;;;;;2.97;2.77;;;;;;;;;;5114120;28;20903;-71
2023/12/16 03:21:53;;;;;;;2.93;2.50;;;;;;;;;;5114237;28;20408;-71
2023/12/16 03:24:19;;;;;;;2.30;2.20;;;;;;;;;;5114575;28;20414;-72
2023/12/16 03:26:45;;;;;;;2.90;2.33;;;;;;;;;;5113909;28;20823;-71
2023/12/16 03:29:11;;;;;;;3.23;1.93;;;;;;;;;;5114213;28;20408;-71
2023/12/16 03:31:37;;;;;;;1.90;1.80;;;;;;;;;;5114231;28;20415;-72
2023/12/16 03:34:03;;;;;;;2.23;1.77;;;;;;;;;;5114096;28;20476;-71
2023/12/16 03:36:29;;;;;;;2.30;2.20;;;;;;;;;;5114199;28;20487;-72
2023/12/16 03:38:56;;;;;;;2.03;1.93;;;;;;;;;;5113855;28;20404;-71
2023/12/16 03:41:22;;;;;;;2.20;2.10;;;;;;;;;;5114088;28;20431;-71
2023/12/16 03:43:48;;;;;;;2.07;1.93;;;;;;;;;;5113244;28;20416;-71
2023/12/16 03:46:14;;;;;;;2.23;2.23;;;;;;;;;;5113978;28;20463;-71
2023/12/16 03:48:40;;;;;;;2.30;2.20;;;;;;;;;;5113722;28;20471;-70
2023/12/16 03:51:06;;;;;;;2.97;2.13;;;;;;;;;;5113928;28;20415;-70
2023/12/16 03:53:32;;;;;;;2.23;2.23;;;;;;;;;;5113965;28;20506;-71
2023/12/16 03:55:58;;;;;;;2.93;2.60;;;;;;;;;;5113892;28;20515;-70
2023/12/16 03:58:24;;;;;;;1.90;1.90;;;;;;;;;;5113938;28;20416;-71
2023/12/16 04:00:50;;;;;;;1.90;1.80;;;;;;;;;;5113810;28;20412;-71
2023/12/16 04:03:16;;;;;;;3.40;1.77;;;;;;;;;;5113507;28;20451;-71
2023/12/16 04:05:42;;;;;;;2.73;2.20;;;;;;;;;;5113786;28;20463;-70
2023/12/16 04:08:08;;;;;;;2.53;2.43;;;;;;;;;;5113432;28;20849;-71
2023/12/16 04:10:34;;;;;;;2.10;1.90;;;;;;;;;;5113474;28;20433;-71
2023/12/16 04:13:00;;;;;;;2.00;2.00;;;;;;;;;;5113415;28;20416;-71
2023/12/16 04:15:26;;;;;;;3.37;1.97;;;;;;;;;;5113661;28;20411;-71
2023/12/16 04:17:53;;;;;;;2.30;1.80;;;;;;;;;;5113755;28;20418;-71
2023/12/16 04:20:19;;;;;;;3.00;2.20;;;;;;;;;;5113606;28;20461;-71
2023/12/16 04:22:45;;;;;;;2.17;2.10;;;;;;;;;;5113282;28;20449;-71
2023/12/16 04:25:11;;;;;;;2.53;2.43;;;;;;;;;;5113604;28;20427;-72
2023/12/16 04:27:37;;;;;;;2.50;2.40;;;;;;;;;;5113287;28;20419;-71
2023/12/16 04:33:07;;;;;;;3.40;3.20;;;;;;;;;;5113284;28;20457;-71
2023/12/16 04:35:33;;;;;;;3.33;3.20;;;;;;;;;;5113540;28;20407;-71
2023/12/16 04:37:59;;;;;;;4.53;2.93;;;;;;;;;;5113227;28;20442;-71
2023/12/16 04:40:25;;;;;;;3.90;2.73;;;;;;;;;;5113131;28;20423;-71
2023/12/16 04:42:51;;;;;;;3.70;3.50;;;;;;;;;;5113106;28;20412;-71
2023/12/16 04:45:17;;;;;;;3.10;3.10;;;;;;;;;;5113380;28;20459;-72
2023/12/16 04:47:43;;;;;;;3.13;2.93;;;;;;;;;;5113083;28;20423;-71
2023/12/16 04:50:09;;;;;;;3.53;3.30;;;;;;;;;;5113303;28;20495;-71
2023/12/16 04:52:35;;;;;;;2.97;2.80;;;;;;;;;;5113155;28;20499;-71
2023/12/16 04:55:01;;;;;;;3.50;3.40;;;;;;;;;;5114772;28;20438;-71
2023/12/16 04:57:27;;;;;;;3.40;3.23;;;;;;;;;;5116937;28;20415;-71
2023/12/16 04:59:53;;;;;;;2.93;2.83;;;;;;;;;;5116831;28;20418;-72
2023/12/16 05:02:19;;;;;;;3.53;3.17;;;;;;;;;;5116817;28;20450;-71
2023/12/16 05:04:45;;;;;;;5.03;3.60;;;;;;;;;;5116725;28;20490;-71
2023/12/16 05:07:11;;;;;;;3.70;3.50;;;;;;;;;;5116924;28;20520;-71
2023/12/16 05:09:37;;;;;;;2.83;2.73;;;;;;;;;;5116708;28;20427;-71
2023/12/16 05:12:03;;;;;;;6.30;3.27;;;;;;;;;;5116607;28;20514;-71
2023/12/16 05:14:29;;;;;;;3.50;3.20;;;;;;;;;;5116605;28;20407;-71
2023/12/16 05:16:55;;;;;;;3.60;3.40;;;;;;;;;;5132703;27;20832;-72
2023/12/16 05:19:21;;;;;;;3.77;3.57;;;;;;;;;;5116395;28;20431;-71
2023/12/16 05:21:47;;;;;;;2.57;2.47;;;;;;;;;;5116944;28;20860;-72
2023/12/16 05:24:13;;;;;;;3.73;3.17;;;;;;;;;;5116655;28;20900;-71
2023/12/16 05:26:39;;;;;;;3.60;3.40;;;;;;;;;;5116391;28;20901;-71
2023/12/16 05:29:05;;;;;;;7.40;2.93;;;;;;;;;;5116588;28;20408;-71
2023/12/16 05:31:31;;;;;;;10.67;3.00;;;;;;;;;;5116491;28;20420;-71
2023/12/16 05:33:57;;;;;;;3.63;3.40;;;;;;;;;;5116077;28;20424;-71
2023/12/16 05:36:23;;;;;;;3.30;3.00;;;;;;;;;;5116508;28;20403;-71
2023/12/16 05:38:49;;;;;;;3.20;3.00;;;;;;;;;;5116117;28;20420;-71
2023/12/16 05:41:15;;;;;;;3.13;3.03;;;;;;;;;;5116380;28;20450;-71
2023/12/16 05:43:41;;;;;;;3.37;3.17;;;;;;;;;;5116045;28;20895;-71
2023/12/16 05:46:07;;;;;;;3.70;3.37;;;;;;;;;;5116149;28;20551;-71
2023/12/16 05:48:35;;;;;;;3.40;3.30;;;;;;;;;;5115850;28;20416;-71
2023/12/16 05:51:01;;;;;;;3.30;3.20;;;;;;;;;;5115959;28;20427;-71
2023/12/16 05:53:27;;;;;;;3.30;3.10;;;;;;;;;;5116256;28;20408;-71
2023/12/16 05:55:53;;;;;;;3.50;3.30;;;;;;;;;;5116162;28;20883;-70
2023/12/16 05:58:19;;;;;;;3.60;3.40;;;;;;;;;;5116064;28;20408;-71
2023/12/16 06:00:45;;;;;;;4.90;4.10;;;;;;;;;;5115626;28;20416;-71
2023/12/16 06:03:11;;;;;;;3.77;3.07;;;;;;;;;;5115425;28;20463;-71
2023/12/16 06:05:37;;;;;;;4.20;3.80;;;;;;;;;;5115592;28;20466;-71
2023/12/16 06:08:04;;;;;;;3.80;3.50;;;;;;;;;;5115627;28;20408;-70
2023/12/16 06:10:30;;;;;;;6.73;4.30;;;;;;;;;;5115455;28;20834;-71
2023/12/16 06:12:56;;;;;;;4.37;4.07;;;;;;;;;;5115416;28;20416;-71
2023/12/16 06:15:22;;;;;;;4.50;4.20;;;;;;;;;;5115289;28;20472;-71
2023/12/16 06:17:47;;;;;;;3.70;3.60;;;;;;;;;;5115442;28;20503;-71
2023/12/16 06:20:14;;;;;;;3.37;3.17;;;;;;;;;;5115313;28;20416;-71
2023/12/16 06:22:39;;;;;;;4.20;3.90;;;;;;;;;;5115364;28;20494;-71
2023/12/16 06:25:06;;;;;;;3.67;3.40;;;;;;;;;;5115720;28;20863;-70
2023/12/16 06:27:32;;;;;;;11.33;4.07;;;;;;;;;;5115143;28;20900;-71
2023/12/16 06:29:58;;;;;;;4.30;3.97;;;;;;;;;;5115010;28;20790;-71
2023/12/16 06:32:24;;;;;;;5.83;4.93;;;;;;;;;;5115182;28;20422;-71
2023/12/16 06:34:50;;;;;;;4.57;4.23;;;;;;;;;;5115209;28;20408;-71
2023/12/16 06:37:16;;;;;;;3.90;3.70;;;;;;;;;;5114918;28;20416;-71
2023/12/16 06:39:42;;;;;;;4.63;4.43;;;;;;;;;;5115102;28;20408;-70
2023/12/16 06:42:08;;;;;;;4.57;4.33;;;;;;;;;;5115148;28;20514;-70
2023/12/16 06:44:34;;;;;;;4.63;4.43;;;;;;;;;;5115055;28;20416;-69
2023/12/16 06:47:00;;;;;;;5.13;4.53;;;;;;;;;;5114660;28;20536;-69
2023/12/16 06:49:25;;;;;;;4.67;4.47;;;;;;;;;;5114939;28;20498;-69
2023/12/16 06:51:51;;;;;;;4.90;4.70;;;;;;;;;;5115215;28;20420;-70
2023/12/16 06:54:17;;;;;;;4.13;3.87;;;;;;;;;;5114850;28;20415;-71
2023/12/16 06:56:43;;;;;;;4.50;4.20;;;;;;;;;;5114893;28;20503;-71
2023/12/16 06:59:09;;;;;;;4.67;3.83;;;;;;;;;;5114769;28;20412;-71
2023/12/16 07:01:35;;;;;;;4.83;4.27;;;;;;;;;;5115040;28;20416;-71
2023/12/16 07:04:01;;;;;;;4.73;4.33;;;;;;;;;;5113666;28;20466;-71
2023/12/16 07:06:28;;;;;;;4.83;4.43;;;;;;;;;;5114622;28;20464;-71
2023/12/16 07:08:54;;;;;;;4.20;3.90;;;;;;;;;;5114294;28;20411;-71
2023/12/16 07:11:20;;;;;;;7.80;7.10;;;;;;;;;;5114376;28;20422;-71
2023/12/16 07:13:46;;;;;;;8.63;7.93;;;;;;;;;;5114443;27;20431;-71
2023/12/16 07:16:14;;;;;;;6.70;6.17;;;;;;;;;;5114174;28;20498;-71
2023/12/16 07:18:41;;;;;;;6.80;6.30;;;;;;;;;;5113533;28;20408;-71
2023/12/16 07:21:07;;;;;;;7.30;6.63;;;;;;;;;;5114081;28;20499;-71
2023/12/16 07:23:33;;;;;;;5.60;5.20;;;;;;;;;;5114124;28;20487;-71
2023/12/16 07:26:00;;;;;;;4.90;4.53;;;;;;;;;;5114524;27;20467;-71
2023/12/16 07:28:26;;;;;;;21.00;11.73;;;;;;;;;;5112470;28;20499;-71
2023/12/16 07:30:52;;;;;;;6.20;5.80;;;;;;;;;;5114147;28;20539;-71
2023/12/16 07:33:18;;;;;;;4.40;4.20;;;;;;;;;;5113568;28;20435;-71
2023/12/16 07:35:44;;;;;;;5.90;5.50;;;;;;;;;;5113894;28;20451;-71
2023/12/16 07:38:10;;;;;;;4.60;4.30;;;;;;;;;;5113730;28;20435;-71
2023/12/16 07:40:37;;;;;;;8.30;7.50;;;;;;;;;;5114067;28;20478;-71
2023/12/16 07:43:03;;;;;;;7.00;6.50;;;;;;;;;;5113537;28;20445;-71
2023/12/16 07:45:29;;;;;;;5.40;5.10;;;;;;;;;;5113642;28;20546;-71
2023/12/16 07:47:55;;;;;;;5.77;5.37;;;;;;;;;;5113535;28;20428;-71
2023/12/16 07:50:21;;;;;;;5.63;4.60;;;;;;;;;;5113637;28;20434;-72
2023/12/16 07:52:47;;;;;;;5.57;5.27;;;;;;;;;;5113521;28;20775;-71
2023/12/16 07:55:13;;;;;;;4.60;4.30;;;;;;;;;;5113573;28;20419;-72
2023/12/16 07:57:39;;;;;;;4.73;4.33;;;;;;;;;;5113653;28;20434;-72
2023/12/16 08:00:06;;;;;;;4.20;4.10;;;;;;;;;;5113723;28;20416;-71
2023/12/16 08:02:32;;;;;;;4.17;3.97;;;;;;;;;;5113716;28;20431;-72
2023/12/16 08:04:58;;;;;;;4.70;4.40;;;;;;;;;;5113321;28;21034;-72
2023/12/16 08:07:24;;;;;;;5.00;4.70;;;;;;;;;;5113615;28;20558;-71
2023/12/16 08:09:50;;;;;;;5.10;4.60;;;;;;;;;;5114052;28;20447;-71
2023/12/16 08:12:16;;;;;;;4.80;4.30;;;;;;;;;;5113205;28;20521;-71
2023/12/16 08:14:42;;;;;;;5.37;5.03;;;;;;;;;;5113170;28;20407;-71
2023/12/16 08:17:08;;;;;;;4.30;4.13;;;;;;;;;;5112992;28;20862;-72
2023/12/16 08:22:37;;;;;;;5.30;5.10;;;;;;;;;;5113150;28;20918;-71
2023/12/16 08:25:03;;;;;;;6.67;6.10;;;;;;;;;;5113567;28;20407;-71
2023/12/16 08:27:29;;;;;;;7.57;5.40;;;;;;;;;;5113829;28;20428;-72
2023/12/16 08:29:55;;;;;;;6.60;6.10;;;;;;;;;;5116766;28;20857;-72
2023/12/16 08:32:21;;;;;;;22.40;15.63;;;;;;;;;;5117261;28;20503;-71
2023/12/16 08:34:47;;;;;;;5.30;4.93;;;;;;;;;;5115941;28;20450;-71
2023/12/16 08:37:13;;;;;;;4.50;4.20;;;;;;;;;;5117507;28;20759;-72
2023/12/16 08:39:39;;;;;;;4.43;4.23;;;;;;;;;;5117313;28;20431;-72
2023/12/16 08:42:06;;;;;;;10.40;6.93;;;;;;;;;;5117249;28;20413;-72
2023/12/16 08:44:32;;;;;;;12.93;9.10;;;;;;;;;;5117121;28;20840;-72
2023/12/16 08:46:58;;;;;;;12.23;6.10;;;;;;;;;;5117063;28;20475;-72
2023/12/16 08:49:24;;;;;;;7.63;6.93;;;;;;;;;;5117364;28;20411;-72
2023/12/16 08:51:52;;;;;;;6.20;5.60;;;;;;;;;;5117157;28;20498;-71
2023/12/16 08:54:18;;;;;;;7.40;6.70;;;;;;;;;;5117561;28;20404;-72
2023/12/16 08:56:44;;;;;;;5.60;5.17;;;;;;;;;;5117038;28;20984;-72
2023/12/16 08:59:09;;;;;;;6.60;6.10;;;;;;;;;;5116908;28;20408;-72
2023/12/16 09:01:35;;;;;;;20.53;13.00;;;;;;;;;;5117161;28;20481;-72
2023/12/16 09:04:01;;;;;;;4.73;4.37;;;;;;;;;;5116421;28;20473;-72
2023/12/16 09:06:27;;;;;;;4.80;4.60;;;;;;;;;;5116774;28;20478;-72
2023/12/16 09:08:54;;;;;;;3.77;3.67;;;;;;;;;;5116931;28;20408;-72
2023/12/16 09:11:20;;;;;;;4.27;4.07;;;;;;;;;;5116699;27;20422;-72
2023/12/16 09:13:46;;;;;;;3.67;3.57;;;;;;;;;;5116572;28;20412;-72
2023/12/16 09:16:12;;;;;;;4.03;3.93;;;;;;;;;;5116941;28;20416;-72
2023/12/16 09:18:38;;;;;;;5.57;5.13;;;;;;;;;;5116491;28;20403;-72
2023/12/16 09:21:04;;;;;;;5.83;5.47;;;;;;;;;;5116737;28;20419;-72
2023/12/16 09:23:30;;;;;;;4.40;4.20;;;;;;;;;;5116844;28;20460;-72
2023/12/16 09:25:56;;;;;;;5.13;4.57;;;;;;;;;;5116400;28;21000;-72
2023/12/16 09:28:22;;;;;;;4.87;4.63;;;;;;;;;;5116845;28;20408;-73
2023/12/16 09:30:48;;;;;;;5.67;5.23;;;;;;;;;;5116652;28;20411;-72
2023/12/16 09:33:14;;;;;;;6.83;6.33;;;;;;;;;;5116373;28;20403;-72
2023/12/16 09:35:41;;;;;;;6.10;5.60;;;;;;;;;;5116184;28;20404;-72
2023/12/16 09:38:07;;;;;;;6.33;5.90;;;;;;;;;;5116130;28;20447;-72
2023/12/16 09:40:33;;;;;;;5.17;4.80;;;;;;;;;;5115783;28;20415;-72
2023/12/16 09:43:05;;;;;;;5.87;5.47;;;;;;;;;;5116044;28;20514;-71
2023/12/16 09:45:31;;;;;;;12.17;5.80;;;;;;;;;;5116267;28;20495;-72
2023/12/16 09:47:57;;;;;;;6.03;5.47;;;;;;;;;;5116439;28;20447;-72
2023/12/16 09:50:23;;;;;;;6.17;5.87;;;;;;;;;;5116002;28;20404;-72
2023/12/16 09:52:49;;;;;;;4.47;4.07;;;;;;;;;;5115788;28;20421;-72
2023/12/16 09:55:15;;;;;;;9.23;6.40;;;;;;;;;;5115848;28;20460;-72
2023/12/16 09:57:41;;;;;;;8.80;4.23;;;;;;;;;;5114523;28;20451;-73
2023/12/16 10:00:09;;;;;;;6.15;5.55;;;;;;;;;;5115481;28;20395;-69
2023/12/16 10:02:35;;;;;;;4.93;4.63;;;;;;;;;;5115897;28;20182;-73
2023/12/16 10:05:02;;;;;;;4.73;4.53;;;;;;;;;;5115424;28;20462;-73
2023/12/16 10:07:28;;;;;;;5.53;5.23;;;;;;;;;;5116183;28;20551;-73
2023/12/16 10:09:54;;;;;;;5.60;5.30;;;;;;;;;;5115400;28;20399;-72
2023/12/16 10:12:20;;;;;;;5.90;5.40;;;;;;;;;;5115387;28;20423;-72
2023/12/16 10:14:47;;;;;;;12.20;9.67;;;;;;;;;;5115609;28;20480;-73
2023/12/16 10:17:14;;;;;;;7.80;7.10;;;;;;;;;;5115448;28;20907;-72
2023/12/16 10:19:42;;;;;;;4.67;4.30;;;;;;;;;;5115488;28;20416;-72
2023/12/16 10:22:08;;;;;;;5.37;5.07;;;;;;;;;;5115666;28;20424;-72
2023/12/16 10:24:34;;;;;;;4.80;4.43;;;;;;;;;;5115097;28;20412;-71
2023/12/16 10:27:02;;;;;;;3.73;3.57;;;;;;;;;;5115149;28;20471;-73
2023/12/16 10:29:28;;;;;;;3.63;3.50;;;;;;;;;;5115547;28;20528;-73
2023/12/16 10:31:54;;;;;;;4.97;4.40;;;;;;;;;;5115377;28;20445;-73
2023/12/16 10:34:20;;;;;;;4.87;4.67;;;;;;;;;;5114929;28;20820;-72
2023/12/16 10:36:46;;;;;;;8.33;6.67;;;;;;;;;;5115323;28;20419;-72
2023/12/16 10:39:13;;;;;;;6.90;6.30;;;;;;;;;;5114958;28;20423;-72
2023/12/16 10:41:39;;;;;;;12.13;8.03;;;;;;;;;;5114929;27;20427;-72
2023/12/16 10:44:05;;;;;;;7.33;6.83;;;;;;;;;;5115009;28;20546;-72
2023/12/16 10:46:35;;;;;;;7.17;6.67;;;;;;;;;;5115025;28;20475;-72
2023/12/16 10:49:01;;;;;;;9.10;7.53;;;;;;;;;;5114663;28;20511;-73
2023/12/16 10:51:28;;;;;;;7.80;6.70;;;;;;;;;;5113790;28;20428;-72
2023/12/16 10:54:03;;;;;;;7.27;6.57;;;;;;;;;;5114028;28;20430;-73
2023/12/16 10:56:30;;;;;;;6.83;6.07;;;;;;;;;;5114736;28;20453;-73
2023/12/16 10:59:05;;;;;;;6.17;5.60;;;;;;;;;;5114838;28;20443;-72
2023/12/16 11:01:34;;;;;;;4.77;4.50;;;;;;;;;;5114499;28;20484;-72
2023/12/16 11:04:06;;;;;;;4.03;3.83;;;;;;;;;;5114297;28;20458;-72
2023/12/16 11:06:59;;;;;;;4.30;4.10;;;;;;;;;;5114379;28;20476;-72
2023/12/16 11:09:25;;;;;;;4.37;4.07;;;;;;;;;;5112964;28;20416;-73
2023/12/16 11:11:53;;;;;;;3.30;3.20;;;;;;;;;;5114057;28;20464;-71
2023/12/16 11:14:20;;;;;;;10.20;5.40;;;;;;;;;;5114256;28;20410;-72
2023/12/16 11:16:59;;;;;;;11.90;8.80;;;;;;;;;;5114582;27;20412;-72
2023/12/16 11:19:58;;;;;;;7.97;7.20;;;;;;;;;;5114269;28;20414;-72
2023/12/16 11:22:24;;;;;;;3.50;3.40;;;;;;;;;;5090813;28;20514;-71
2023/12/16 11:24:53;;;;;;;2.90;2.77;;;;;;;;;;5114614;28;20411;-71
2023/12/16 11:27:21;;;;;;;7.30;4.07;;;;;;;;;;5112751;28;20475;-71
2023/12/16 11:32:57;;;;;;;7.30;6.80;;;;;;;;;;5113964;28;20391;-71
2023/12/16 11:35:38;;;;;;;4.67;4.27;;;;;;;;;;5113731;28;20415;-71
2023/12/16 11:38:05;;;;;;;3.27;3.17;;;;;;;;;;5114126;28;20535;-72
2023/12/16 11:40:46;;;;;;;3.20;3.10;;;;;;;;;;5113827;28;20491;-71
2023/12/16 11:43:12;;;;;;;3.33;3.23;;;;;;;;;;5114016;28;20917;-71
2023/12/16 11:45:39;;;;;;;6.53;5.90;;;;;;;;;;5113885;28;20997;-71
2023/12/16 11:48:05;;;;;;;5.87;4.53;;;;;;;;;;5113522;28;20427;-71
2023/12/16 11:50:33;;;;;;;1.70;1.70;;;;;;;;;;5112454;28;20412;-71
2023/12/16 11:52:59;;;;;;;2.10;2.10;;;;;;;;;;5113845;28;20517;-72
2023/12/16 11:55:25;;;;;;;3.00;2.70;;;;;;;;;;5113439;28;20411;-72
2023/12/16 11:57:52;;;;;;;2.10;2.10;;;;;;;;;;5113502;28;20416;-71
2023/12/16 12:00:19;;;;;;;3.20;3.00;;;;;;;;;;5113420;28;20416;-71
2023/12/16 12:02:45;;;;;;;3.67;3.43;;;;;;;;;;5113633;28;20483;-71
2023/12/16 12:05:11;;;;;;;2.40;2.27;;;;;;;;;;5113148;28;20538;-72
2023/12/16 12:07:39;;;;;;;2.83;2.83;;;;;;;;;;5113453;28;20479;-71
2023/12/16 12:10:05;;;;;;;2.90;2.87;;;;;;;;;;5113482;28;20575;-72
2023/12/16 12:12:31;;;;;;;3.40;3.30;;;;;;;;;;5113642;28;20789;-72
2023/12/16 12:14:57;;;;;;;2.57;2.47;;;;;;;;;;5113255;28;20503;-71
2023/12/16 12:17:23;;;;;;;3.80;2.93;;;;;;;;;;5113607;28;20780;-74
2023/12/16 12:19:51;;;;;;;2.80;2.70;;;;;;;;;;5113269;28;20914;-71
2023/12/16 12:22:20;;;;;;;3.97;2.40;;;;;;;;;;5113361;28;20415;-72
2023/12/16 12:24:46;;;;;;;3.00;2.90;;;;;;;;;;5113295;28;20416;-72
2023/12/16 12:27:12;;;;;;;3.07;2.83;;;;;;;;;;5113040;28;20554;-71
2023/12/16 12:29:57;;;;;;;3.07;2.80;;;;;;;;;;5113020;28;20408;-71
2023/12/16 12:32:24;;;;;;;2.37;2.23;;;;;;;;;;5113360;28;20467;-72
2023/12/16 12:35:04;;;;;;;3.20;3.00;;;;;;;;;;5113191;28;20420;-72
2023/12/16 12:37:36;;;;;;;2.70;2.53;;;;;;;;;;5113128;28;20400;-72
2023/12/16 12:40:05;;;;;;;3.20;3.10;;;;;;;;;;5113164;28;20410;-72
2023/12/16 12:42:43;;;;;;;6.10;2.93;;;;;;;;;;5113361;28;20404;-72
2023/12/16 12:45:09;;;;;;;4.10;3.80;;;;;;;;;;5113600;28;20878;-72
2023/12/16 12:47:35;;;;;;;4.30;3.50;;;;;;;;;;5112837;28;20825;-72
2023/12/16 12:50:02;;;;;;;6.23;3.10;;;;;;;;;;5113297;28;20934;-72
2023/12/16 12:52:40;;;;;;;4.83;3.43;;;;;;;;;;5113238;28;20836;-72
2023/12/16 12:55:06;;;;;;;4.00;3.63;;;;;;;;;;5112882;28;20444;-72
2023/12/16 12:57:32;;;;;;;4.60;4.00;;;;;;;;;;5112801;28;20476;-72
2023/12/16 13:00:03;;;;;;;4.17;3.77;;;;;;;;;;5113266;28;20573;-72
2023/12/16 13:02:29;;;;;;;4.27;3.87;;;;;;;;;;5112649;28;20469;-72
2023/12/16 13:04:55;;;;;;;5.20;3.87;;;;;;;;;;5112811;28;20462;-72
2023/12/16 13:07:21;;;;;;;6.60;4.40;;;;;;;;;;5112726;28;20558;-73
2023/12/16 13:09:47;;;;;;;5.50;4.20;;;;;;;;;;5112716;28;20408;-70
2023/12/16 13:12:13;;;;;;;4.10;3.80;;;;;;;;;;5112800;28;20407;-72
2023/12/16 13:14:45;;;;;;;4.90;4.10;;;;;;;;;;5112763;28;20498;-72
2023/12/16 13:17:11;;;;;;;3.27;2.97;;;;;;;;;;5116570;28;20439;-72
2023/12/16 13:19:37;;;;;;;4.07;3.70;;;;;;;;;;5115188;28;20850;-72
2023/12/16 13:22:04;;;;;;;4.73;4.33;;;;;;;;;;5116740;28;20499;-72
2023/12/16 13:24:30;;;;;;;3.67;3.33;;;;;;;;;;5116709;28;20415;-72
2023/12/16 13:26:57;;;;;;;5.27;4.87;;;;;;;;;;5116490;28;20463;-72
2023/12/16 13:29:23;;;;;;;7.67;4.73;;;;;;;;;;5116601;28;20418;-72
2023/12/16 13:31:49;;;;;;;4.40;4.00;;;;;;;;;;5116469;28;20514;-72
2023/12/16 13:34:15;;;;;;;5.40;4.50;;;;;;;;;;5116249;28;20451;-72
2023/12/16 13:36:41;;;;;;;5.70;4.50;;;;;;;;;;5116064;28;20472;-71
2023/12/16 13:39:07;;;;;;;3.90;3.67;;;;;;;;;;5116403;28;20411;-72
2023/12/16 13:41:33;;;;;;;5.53;5.13;;;;;;;;;;5116743;28;20415;-71
2023/12/16 13:43:59;;;;;;;9.53;3.13;;;;;;;;;;5116044;28;20904;-71
2023/12/16 13:46:25;;;;;;;3.67;3.37;;;;;;;;;;5116284;28;21050;-71
2023/12/16 13:48:51;;;;;;;3.37;3.07;;;;;;;;;;5115882;28;20415;-71
2023/12/16 13:51:17;;;;;;;4.80;4.50;;;;;;;;;;5116031;28;20427;-71
2023/12/16 13:53:43;;;;;;;4.67;3.40;;;;;;;;;;5116138;28;20427;-72
2023/12/16 13:56:09;;;;;;;4.87;2.87;;;;;;;;;;5116607;28;20420;-71
2023/12/16 13:58:35;;;;;;;3.90;3.60;;;;;;;;;;5115774;28;20498;-71
2023/12/16 14:01:01;;;;;;;4.87;3.07;;;;;;;;;;5116044;28;20491;-71
2023/12/16 14:03:27;;;;;;;6.97;4.50;;;;;;;;;;5115415;28;20471;-71
2023/12/16 14:05:53;;;;;;;3.27;2.67;;;;;;;;;;5115616;28;20462;-71
2023/12/16 14:08:19;;;;;;;3.00;2.80;;;;;;;;;;5115574;28;20423;-71
2023/12/16 14:10:47;;;;;;;5.40;2.70;;;;;;;;;;5115850;28;20887;-71
2023/12/16 14:13:13;;;;;;;4.00;3.70;;;;;;;;;;5115568;27;20412;-71
2023/12/16 14:15:39;;;;;;;3.13;2.93;;;;;;;;;;5115699;28;20825;-71
2023/12/16 14:18:05;;;;;;;2.90;2.70;;;;;;;;;;5115906;28;20892;-71
2023/12/16 14:20:31;;;;;;;4.53;3.60;;;;;;;;;;5115662;28;20419;-72
2023/12/16 14:22:57;;;;;;;4.27;3.87;;;;;;;;;;5113884;28;20511;-71
2023/12/16 14:25:23;;;;;;;3.73;2.73;;;;;;;;;;5115405;28;20412;-71
2023/12/16 14:27:49;;;;;;;6.67;2.77;;;;;;;;;;5115036;28;20969;-71
2023/12/16 14:30:16;;;;;;;4.97;4.47;;;;;;;;;;5115199;28;20461;-71
2023/12/16 14:32:42;;;;;;;9.73;5.40;;;;;;;;;;5115396;28;20427;-71
2023/12/16 14:35:10;;;;;;;24.97;10.27;;;;;;;;;;5115943;28;20412;-71
2023/12/16 14:37:36;;;;;;;6.27;4.50;;;;;;;;;;5114947;28;20930;-71
2023/12/16 14:40:02;;;;;;;8.60;4.70;;;;;;;;;;5115302;28;20424;-71
2023/12/16 14:42:28;;;;;;;10.33;7.10;;;;;;;;;;5114953;28;20631;-71
2023/12/16 14:44:54;;;;;;;15.77;8.60;;;;;;;;;;5115224;28;20887;-72
2023/12/16 14:47:20;;;;;;;24.23;11.57;;;;;;;;;;5115201;28;20980;-72
2023/12/16 14:49:47;;;;;;;11.43;6.00;;;;;;;;;;5115061;28;20408;-70
2023/12/16 14:52:13;;;;;;;9.40;6.13;;;;;;;;;;5115073;28;20420;-71